Time;durP1;ratioP1;P1;durP2;ratioP2;P2;SDS_P1;SDS_P2;PMS_P1;PMS_P2;Temp;Humidity;BMP_temperature;BMP_pressure;BME280_temperature;BME280_humidity;BME280_pressure;Samples;Min_cycle;Max_cycle;Signal;HPM_P1;HPM_P2
2022/05/05 00:02:07;;;;;;;6.47;4.93;;;;;;;21.19;51.80;101316.72;4977476;28;20054;-73
2022/05/05 00:04:35;;;;;;;7.47;5.30;;;;;;;21.20;51.83;101322.97;4977523;28;20340;-72
2022/05/05 00:07:03;;;;;;;7.55;5.32;;;;;;;21.20;51.75;101317.59;4976963;28;20069;-72
2022/05/05 00:09:31;;;;;;;9.25;5.40;;;;;;;21.18;51.76;101323.06;4976948;28;20483;-72
2022/05/05 00:14:45;;;;;;;6.57;5.30;;;;;;;21.19;51.65;101321.28;4977206;28;20047;-72
2022/05/05 00:17:12;;;;;;;6.00;5.25;;;;;;;21.18;51.65;101309.63;4976743;28;20055;-72
2022/05/05 00:19:41;;;;;;;6.05;5.25;;;;;;;21.18;51.68;101314.16;4976996;28;20074;-72
2022/05/05 00:22:10;;;;;;;6.13;5.47;;;;;;;21.17;51.65;101310.59;4976911;28;20479;-72
2022/05/05 00:24:38;;;;;;;5.35;4.75;;;;;;;21.18;51.62;101306.91;4975416;28;20469;-72
2022/05/05 00:27:08;;;;;;;7.80;5.60;;;;;;;21.18;51.55;101306.91;4975868;28;20054;-73
2022/05/05 00:29:35;;;;;;;6.75;5.00;;;;;;;21.18;51.55;101308.78;4975692;28;20050;-72
2022/05/05 00:32:03;;;;;;;6.43;5.55;;;;;;;21.17;51.62;101302.53;4977007;28;20058;-73
2022/05/05 00:34:30;;;;;;;5.57;5.07;;;;;;;21.17;51.58;101307.06;4975587;28;20059;-73
2022/05/05 00:36:58;;;;;;;7.45;5.00;;;;;;;21.16;51.48;101314.28;4977154;28;20050;-73
2022/05/05 00:39:25;;;;;;;7.57;5.35;;;;;;;21.16;51.65;101317.00;4976522;28;20495;-73
2022/05/05 00:41:52;;;;;;;7.55;5.70;;;;;;;21.16;51.63;101311.59;4975240;28;20495;-72
2022/05/05 00:44:20;;;;;;;6.15;5.15;;;;;;;21.16;51.58;101311.59;4976714;28;20030;-73
2022/05/05 00:46:51;;;;;;;6.32;5.43;;;;;;;21.16;51.60;101308.91;4976417;28;20053;-72
2022/05/05 00:49:19;;;;;;;5.68;4.70;;;;;;;21.16;51.64;101303.53;4977047;28;20046;-72
2022/05/05 00:51:46;;;;;;;7.18;5.20;;;;;;;21.15;51.45;101293.75;4975774;28;20047;-73
2022/05/05 00:54:14;;;;;;;6.40;5.28;;;;;;;21.15;51.55;101304.53;4976306;28;20054;-73
2022/05/05 00:56:45;;;;;;;5.80;5.20;;;;;;;21.15;51.50;101301.81;4974800;28;20062;-73
2022/05/05 00:59:13;;;;;;;6.93;5.22;;;;;;;21.15;51.38;101306.38;4976519;28;20070;-73
2022/05/05 01:01:40;;;;;;;5.70;4.80;;;;;;;21.15;51.42;101309.91;4975570;28;20054;-72
2022/05/05 01:04:08;;;;;;;6.82;5.68;;;;;;;21.14;51.28;101304.63;4974813;28;20053;-72
2022/05/05 01:06:36;;;;;;;6.30;5.20;;;;;;;21.14;51.33;101310.88;4975463;28;20051;-72
2022/05/05 01:09:06;;;;;;;5.28;4.78;;;;;;;21.14;51.36;101297.41;4976496;28;20047;-72
2022/05/05 01:11:34;;;;;;;5.72;5.07;;;;;;;21.14;51.40;101297.41;4976618;28;20054;-72
2022/05/05 01:14:01;;;;;;;9.15;6.20;;;;;;;21.15;51.27;101292.91;4974786;28;20057;-72
2022/05/05 01:16:29;;;;;;;8.05;6.20;;;;;;;21.14;51.29;101293.88;4975760;28;20042;-72
2022/05/05 01:18:56;;;;;;;7.97;6.10;;;;;;;21.14;51.26;101291.16;4975612;28;20084;-72
2022/05/05 01:21:24;;;;;;;6.25;5.60;;;;;;;21.13;51.31;101279.56;4974289;28;20050;-72
2022/05/05 01:23:51;;;;;;;7.05;5.00;;;;;;;21.13;51.30;101286.78;4975264;28;20054;-72
2022/05/05 01:29:09;;;;;;;7.35;5.53;;;;;;;21.13;51.15;101284.94;4976222;28;20058;-72
2022/05/05 01:31:36;;;;;;;6.80;5.63;;;;;;;21.12;51.26;101279.69;4975874;28;20047;-72
2022/05/05 01:34:04;;;;;;;5.57;4.53;;;;;;;21.12;51.23;101277.00;4974138;28;20356;-73
2022/05/05 01:36:31;;;;;;;5.78;5.18;;;;;;;21.12;51.25;101269.78;4974696;28;20054;-72
2022/05/05 01:38:59;;;;;;;7.18;5.07;;;;;;;21.12;51.18;101279.69;4975548;28;20487;-72
2022/05/05 01:41:26;;;;;;;5.60;5.00;;;;;;;21.11;51.19;101268.06;4975992;28;20047;-72
2022/05/05 01:43:54;;;;;;;5.05;4.47;;;;;;;21.12;51.22;101277.00;4975643;28;20047;-72
2022/05/05 01:46:21;;;;;;;5.35;4.68;;;;;;;21.12;51.07;101268.94;4975150;28;20054;-72
2022/05/05 01:48:48;;;;;;;5.88;5.18;;;;;;;21.12;51.07;101271.63;4975641;28;20054;-72
2022/05/05 01:51:16;;;;;;;6.85;5.00;;;;;;;21.11;51.04;101267.22;4975072;28;20043;-72
2022/05/05 01:53:43;;;;;;;5.82;4.97;;;;;;;21.11;51.14;101267.22;4973807;28;20050;-72
2022/05/05 01:56:12;;;;;;;6.90;4.63;;;;;;;21.10;51.03;101260.97;4975043;28;20042;-72
2022/05/05 01:58:44;;;;;;;5.88;5.07;;;;;;;21.11;50.97;101267.22;4975419;28;20043;-72
2022/05/05 02:01:12;;;;;;;5.50;5.00;;;;;;;21.10;51.07;101269.03;4975296;28;20396;-72
2022/05/05 02:03:40;;;;;;;5.63;5.05;;;;;;;21.10;51.12;101265.50;4975573;28;20042;-72
2022/05/05 02:06:07;;;;;;;6.85;4.88;;;;;;;21.10;50.83;101269.03;4973895;28;20066;-72
2022/05/05 02:08:37;;;;;;;9.05;5.60;;;;;;;21.09;50.94;101270.03;4974656;28;20126;-72
2022/05/05 02:11:04;;;;;;;6.40;5.15;;;;;;;21.09;50.84;101270.03;4975441;28;20054;-72
2022/05/05 02:13:32;;;;;;;5.72;4.70;;;;;;;21.09;51.06;101274.56;4974667;28;20402;-72
2022/05/05 02:16:00;;;;;;;6.00;4.90;;;;;;;21.10;50.81;101281.66;4973554;28;20054;-72
2022/05/05 02:18:27;;;;;;;5.45;4.90;;;;;;;21.08;50.94;101279.09;4974613;28;20050;-72
2022/05/05 02:20:55;;;;;;;5.72;5.07;;;;;;;21.09;50.87;101274.56;4975347;28;20050;-72
2022/05/05 02:23:23;;;;;;;5.65;4.95;;;;;;;21.08;50.84;101272.88;4974323;28;20051;-72
2022/05/05 02:25:50;;;;;;;6.18;5.43;;;;;;;21.08;50.82;101271.03;4974517;28;20400;-72
2022/05/05 02:28:18;;;;;;;5.30;4.60;;;;;;;21.08;50.90;101270.19;4974466;28;20411;-72
2022/05/05 02:30:45;;;;;;;6.68;4.97;;;;;;;21.08;50.79;101276.41;4974718;28;20395;-72
2022/05/05 02:33:12;;;;;;;6.47;4.80;;;;;;;21.07;50.71;101261.25;4974915;28;20058;-72
2022/05/05 02:35:40;;;;;;;5.82;4.05;;;;;;;21.07;50.58;101269.34;4973189;28;20050;-72
2022/05/05 02:40:54;;;;;;;6.93;4.45;;;;;;;21.08;50.91;101276.41;4974838;28;20047;-72
2022/05/05 02:43:21;;;;;;;6.65;5.15;;;;;;;21.08;50.82;101278.25;4974490;28;20054;-73
2022/05/05 02:45:49;;;;;;;5.95;4.35;;;;;;;21.08;50.83;101287.19;4973571;28;20046;-72
2022/05/05 02:48:16;;;;;;;5.35;4.68;;;;;;;21.08;50.89;101286.34;4973641;28;20066;-73
2022/05/05 02:50:44;;;;;;;5.22;4.70;;;;;;;21.07;51.04;101293.56;4972211;28;20061;-73
2022/05/05 02:55:57;;;;;;;4.90;4.38;;;;;;;21.07;50.95;101295.41;4974601;28;20055;-73
2022/05/05 02:58:27;;;;;;;5.25;4.68;;;;;;;21.07;50.65;101287.31;4974613;28;20047;-73
2022/05/05 03:00:54;;;;;;;5.93;5.32;;;;;;;21.06;50.77;101291.81;4974340;28;20121;-73
2022/05/05 03:03:22;;;;;;;6.38;4.72;;;;;;;21.06;50.83;101299.91;4974652;28;20047;-73
2022/05/05 03:05:49;;;;;;;6.25;5.65;;;;;;;21.07;50.77;101303.47;4973992;28;20500;-73
2022/05/05 03:08:16;;;;;;;5.15;4.65;;;;;;;21.06;50.76;101301.75;4973374;28;20067;-73
2022/05/05 03:10:44;;;;;;;6.28;4.88;;;;;;;21.05;50.72;101295.50;4974064;28;20069;-73
2022/05/05 03:13:11;;;;;;;7.55;5.53;;;;;;;21.05;50.82;101292.81;4974006;28;20149;-73
2022/05/05 03:15:39;;;;;;;5.85;5.00;;;;;;;21.05;50.69;101294.66;4972925;28;20047;-73
2022/05/05 03:18:06;;;;;;;5.68;5.03;;;;;;;21.04;50.72;101301.88;4974273;28;20507;-73
2022/05/05 03:20:33;;;;;;;7.38;4.55;;;;;;;21.04;50.75;101298.34;4974259;28;20054;-73
2022/05/05 03:23:01;;;;;;;5.55;4.85;;;;;;;21.03;50.69;101294.81;4974394;28;20410;-73
2022/05/05 03:25:28;;;;;;;5.85;4.90;;;;;;;21.04;50.76;101295.66;4974415;28;20042;-73
2022/05/05 03:27:56;;;;;;;5.15;4.30;;;;;;;21.03;50.73;101297.50;4974105;28;20046;-73
2022/05/05 03:30:24;;;;;;;5.68;4.90;;;;;;;21.03;50.57;101307.41;4973428;28;20051;-72
2022/05/05 03:32:51;;;;;;;5.10;4.60;;;;;;;21.03;50.76;101305.56;4972991;28;20046;-73
2022/05/05 03:35:18;;;;;;;5.40;4.43;;;;;;;21.02;50.74;101300.31;4973933;28;20043;-73
2022/05/05 03:37:46;;;;;;;5.88;5.07;;;;;;;21.04;50.72;101303.72;4973834;28;20074;-73
2022/05/05 03:40:13;;;;;;;5.38;4.65;;;;;;;21.03;50.75;101310.09;4973792;28;20046;-72
2022/05/05 03:42:40;;;;;;;5.78;5.00;;;;;;;21.03;50.69;101310.09;4973787;28;20047;-72
2022/05/05 03:45:08;;;;;;;6.57;4.60;;;;;;;21.02;50.65;101303.00;4974177;28;20043;-72
2022/05/05 03:47:35;;;;;;;5.57;4.40;;;;;;;21.03;50.69;101304.72;4973040;28;20390;-72
2022/05/05 03:50:03;;;;;;;4.78;4.38;;;;;;;21.01;50.67;101309.38;4973796;28;20047;-72
2022/05/05 03:52:30;;;;;;;5.65;4.72;;;;;;;21.01;50.73;101304.84;4974492;28;20402;-72
2022/05/05 03:54:58;;;;;;;5.40;4.88;;;;;;;21.01;50.56;101302.16;4972303;28;20047;-73
2022/05/05 03:57:25;;;;;;;6.72;5.20;;;;;;;21.01;50.57;101299.44;4972218;28;20054;-73
2022/05/05 03:59:52;;;;;;;6.57;4.78;;;;;;;21.01;50.57;101298.59;4973892;28;20429;-73
2022/05/05 04:02:20;;;;;;;5.63;4.53;;;;;;;21.01;50.47;101299.44;4974419;28;20054;-73
2022/05/05 04:04:48;;;;;;;5.65;5.13;;;;;;;21.00;50.48;101300.44;4977121;28;20054;-73
2022/05/05 04:07:15;;;;;;;6.07;4.90;;;;;;;20.99;50.47;101301.44;4977643;28;20046;-73
2022/05/05 04:09:42;;;;;;;6.82;5.25;;;;;;;20.98;50.45;101307.78;4977895;28;20047;-73
2022/05/05 04:12:10;;;;;;;6.45;4.72;;;;;;;20.99;50.41;101312.22;4975727;28;20050;-72
2022/05/05 04:14:38;;;;;;;5.50;4.95;;;;;;;20.99;50.42;101304.13;4976845;28;20057;-73
2022/05/05 04:17:05;;;;;;;5.97;4.97;;;;;;;20.97;50.39;101306.09;4976960;28;20039;-73
2022/05/05 04:19:33;;;;;;;4.97;4.47;;;;;;;20.98;50.43;101310.47;4977032;28;20050;-72
2022/05/05 04:22:00;;;;;;;5.63;5.10;;;;;;;20.98;50.51;101305.09;4975446;28;20065;-72
2022/05/05 04:24:27;;;;;;;6.70;5.07;;;;;;;20.97;50.37;101319.53;4976841;28;20146;-72
2022/05/05 04:26:55;;;;;;;5.00;4.07;;;;;;;20.97;50.54;101324.94;4977701;28;20051;-72
2022/05/05 04:29:22;;;;;;;8.27;4.95;;;;;;;20.97;50.38;101324.94;4976643;28;20046;-73
2022/05/05 04:31:50;;;;;;;6.38;4.93;;;;;;;20.98;50.48;101326.63;4976783;28;20051;-72
2022/05/05 04:34:18;;;;;;;6.07;5.30;;;;;;;20.96;50.44;101326.78;4976315;28;20069;-72
2022/05/05 04:36:45;;;;;;;6.53;5.68;;;;;;;20.96;50.41;101321.38;4977117;28;20043;-73
2022/05/05 04:39:13;;;;;;;5.00;4.50;;;;;;;20.97;50.38;101324.94;4975042;28;20046;-73
2022/05/05 04:41:40;;;;;;;6.00;5.18;;;;;;;20.96;50.37;101323.22;4976348;28;20047;-72
2022/05/05 04:44:07;;;;;;;4.45;4.05;;;;;;;20.96;50.36;101336.69;4976941;28;20095;-73
2022/05/05 04:46:35;;;;;;;4.95;4.45;;;;;;;20.97;50.41;101341.06;4976054;28;20047;-72
2022/05/05 04:49:02;;;;;;;7.00;4.82;;;;;;;20.96;50.46;101340.22;4976167;28;20058;-73
2022/05/05 04:51:30;;;;;;;5.20;4.55;;;;;;;20.95;50.44;101330.44;4976401;28;20047;-72
2022/05/05 04:53:57;;;;;;;5.38;4.88;;;;;;;20.95;50.33;101330.44;4976316;28;20054;-72
2022/05/05 04:56:24;;;;;;;5.60;4.97;;;;;;;20.96;50.31;101334.00;4974779;28;20061;-73
2022/05/05 04:58:52;;;;;;;5.35;4.85;;;;;;;20.95;50.32;101327.75;4975882;28;20062;-73
2022/05/05 05:01:19;;;;;;;5.85;5.15;;;;;;;20.96;50.37;101336.69;4976265;28;20053;-72
2022/05/05 05:03:47;;;;;;;5.45;4.85;;;;;;;20.95;50.26;101334.97;4976339;28;20054;-72
2022/05/05 05:06:14;;;;;;;6.32;5.72;;;;;;;20.95;50.23;101346.59;4975931;28;20047;-72
2022/05/05 05:08:44;;;;;;;7.68;6.05;;;;;;;20.95;50.28;101348.44;4975649;28;20047;-72
2022/05/05 05:11:11;;;;;;;8.02;7.22;;;;;;;20.95;50.38;101362.75;4975844;28;20047;-72
2022/05/05 05:13:39;;;;;;;9.07;7.15;;;;;;;20.94;50.29;101360.16;4975216;28;20054;-72
2022/05/05 05:16:06;;;;;;;7.88;6.82;;;;;;;20.95;50.34;101364.59;4974898;28;20047;-72
2022/05/05 05:18:54;;;;;;;10.15;7.45;;;;;;;20.95;50.31;101368.13;4975539;28;20107;-72
2022/05/05 05:21:21;;;;;;;9.52;7.55;;;;;;;20.95;50.30;101359.22;4975465;28;20046;-72
2022/05/05 05:23:49;;;;;;;7.97;7.07;;;;;;;20.94;50.32;101361.06;4975852;28;20059;-71
2022/05/05 05:26:16;;;;;;;7.30;6.57;;;;;;;20.95;50.18;101372.66;4974451;28;20383;-72
2022/05/05 05:28:44;;;;;;;8.50;6.63;;;;;;;20.94;50.33;101373.63;4975754;28;20054;-72
2022/05/05 05:31:11;;;;;;;8.55;7.18;;;;;;;20.95;50.30;101369.97;4975449;28;20058;-72
2022/05/05 05:33:38;;;;;;;8.18;7.38;;;;;;;20.93;50.21;101370.09;4975692;28;20058;-72
2022/05/05 05:36:06;;;;;;;7.47;6.72;;;;;;;20.94;50.22;101369.13;4975662;28;20046;-72
2022/05/05 05:38:33;;;;;;;7.57;6.75;;;;;;;20.94;50.22;101357.47;4974131;28;20038;-72
2022/05/05 05:41:01;;;;;;;9.05;7.20;;;;;;;20.95;50.21;101356.50;4975226;28;20074;-72
2022/05/05 05:43:28;;;;;;;7.25;6.55;;;;;;;20.93;50.15;101351.25;4975249;28;20047;-72
2022/05/05 05:45:55;;;;;;;8.98;6.95;;;;;;;20.93;50.23;101362.00;4975027;28;20047;-72
2022/05/05 05:48:23;;;;;;;7.78;6.40;;;;;;;20.93;50.23;101366.53;4975314;28;20487;-73
2022/05/05 05:50:50;;;;;;;8.82;6.45;;;;;;;20.93;50.23;101367.41;4975315;28;20047;-72
2022/05/05 05:53:17;;;;;;;7.07;5.68;;;;;;;20.93;50.14;101377.31;4974978;28;20380;-73
2022/05/05 05:55:45;;;;;;;7.18;6.15;;;;;;;20.93;50.21;101386.22;4975377;28;20394;-73
2022/05/05 05:58:12;;;;;;;6.93;5.97;;;;;;;20.93;50.28;101380.84;4975418;28;20070;-73
2022/05/05 06:00:40;;;;;;;7.57;5.75;;;;;;;20.93;50.06;101380.00;4974769;28;20042;-72
2022/05/05 06:05:54;;;;;;;7.43;6.03;;;;;;;20.93;50.19;101382.69;4974123;28;20051;-72
2022/05/05 06:08:21;;;;;;;6.95;6.22;;;;;;;20.93;50.26;101385.38;4974785;28;20053;-72
2022/05/05 06:10:48;;;;;;;7.15;6.45;;;;;;;20.92;50.10;101391.75;4975005;28;20119;-72
2022/05/05 06:13:21;;;;;;;6.00;5.40;;;;;;;20.92;50.16;101387.22;4975507;28;20394;-72
2022/05/05 06:15:48;;;;;;;7.65;5.95;;;;;;;20.92;50.13;101391.75;4974739;28;20051;-72
2022/05/05 06:18:16;;;;;;;6.72;5.10;;;;;;;20.91;50.17;101382.84;4975228;28;20061;-72
2022/05/05 06:20:43;;;;;;;7.15;6.43;;;;;;;20.92;50.07;101387.22;4974981;28;20046;-73
2022/05/05 06:23:10;;;;;;;7.60;6.65;;;;;;;20.93;50.24;101388.06;4974459;28;20051;-72
2022/05/05 06:25:39;;;;;;;7.32;5.55;;;;;;;20.91;50.24;101388.22;4974193;28;20047;-73
2022/05/05 06:28:06;;;;;;;9.23;6.22;;;;;;;20.91;50.31;101392.75;4958330;28;20046;-72
2022/05/05 06:30:34;;;;;;;7.85;6.22;;;;;;;20.92;50.25;101394.44;4974558;28;20047;-72
2022/05/05 06:33:01;;;;;;;7.25;6.15;;;;;;;20.92;50.45;101397.13;4974509;28;20054;-73
2022/05/05 06:35:28;;;;;;;6.80;6.05;;;;;;;20.92;50.23;101391.75;4974086;28;20406;-72
2022/05/05 06:37:56;;;;;;;7.55;6.13;;;;;;;20.91;50.26;101390.06;4974801;28;20402;-72
2022/05/05 06:40:24;;;;;;;7.25;5.75;;;;;;;20.91;50.26;101385.53;4974830;28;20046;-72
2022/05/05 06:42:52;;;;;;;6.43;5.82;;;;;;;20.92;50.18;101389.06;4973737;28;20051;-72
2022/05/05 06:45:19;;;;;;;6.75;5.65;;;;;;;20.90;50.37;101391.91;4974651;28;20388;-71
2022/05/05 06:47:46;;;;;;;6.10;5.32;;;;;;;20.91;50.31;101390.06;4974732;28;20051;-72
2022/05/05 06:50:16;;;;;;;6.53;5.80;;;;;;;20.91;50.66;101395.44;4974811;28;20499;-71
2022/05/05 06:52:43;;;;;;;6.40;5.78;;;;;;;20.92;50.50;101398.00;4974879;28;20513;-71
2022/05/05 06:55:11;;;;;;;7.50;5.75;;;;;;;20.92;50.22;101389.91;4975545;28;20053;-71
2022/05/05 06:57:38;;;;;;;8.13;5.75;;;;;;;20.92;50.45;101383.69;4973107;28;20046;-72
2022/05/05 07:00:06;;;;;;;6.72;5.70;;;;;;;20.93;50.58;101377.31;4975184;28;20077;-70
2022/05/05 07:02:34;;;;;;;6.30;5.70;;;;;;;20.93;50.67;101383.53;4981264;28;20042;-74
2022/05/05 07:07:47;;;;;;;6.53;5.03;;;;;;;20.95;50.55;101367.28;4994434;28;20057;-75
2022/05/05 07:13:04;;;;;;;8.48;4.70;;;;;;;20.96;51.34;101385.97;4993892;28;20050;-71
2022/05/05 07:15:32;;;;;;;6.90;5.20;;;;;;;20.98;50.82;101397.50;4992465;28;20073;-71
2022/05/05 07:18:00;;;;;;;8.07;6.45;;;;;;;20.98;50.40;101397.50;4993662;28;20398;-71
2022/05/05 07:20:27;;;;;;;8.52;6.10;;;;;;;20.98;50.23;101405.56;4993702;28;20050;-71
2022/05/05 07:22:56;;;;;;;9.15;6.80;;;;;;;20.98;49.86;101408.25;4993568;28;20058;-71
2022/05/05 07:25:25;;;;;;;7.35;5.72;;;;;;;20.99;50.25;101404.56;4994404;28;20054;-73
2022/05/05 07:27:53;;;;;;;8.32;6.28;;;;;;;21.00;49.42;101397.34;4991924;28;20049;-72
2022/05/05 07:30:20;;;;;;;8.40;5.93;;;;;;;20.99;49.04;101407.28;4980938;28;20046;-72
2022/05/05 07:32:48;;;;;;;6.97;5.88;;;;;;;20.99;48.93;101407.28;4974128;28;20046;-72
2022/05/05 07:35:16;;;;;;;7.32;6.20;;;;;;;20.98;48.62;101404.69;4974000;28;20047;-71
2022/05/05 07:37:44;;;;;;;8.25;6.28;;;;;;;20.97;48.42;101403.84;4976418;28;20051;-71
2022/05/05 07:40:12;;;;;;;8.60;5.93;;;;;;;20.97;48.32;101400.28;4977410;28;20051;-72
2022/05/05 07:42:41;;;;;;;9.40;6.32;;;;;;;20.96;48.22;101403.97;4977462;28;20494;-71
2022/05/05 07:45:09;;;;;;;8.73;6.35;;;;;;;20.95;47.97;101399.59;4977423;28;20351;-71
2022/05/05 07:47:36;;;;;;;6.75;5.95;;;;;;;20.95;48.48;101403.13;4976560;28;20054;-70
2022/05/05 07:50:05;;;;;;;6.90;5.00;;;;;;;20.97;49.20;101408.38;4977215;28;20043;-70
2022/05/05 07:52:32;;;;;;;7.72;5.82;;;;;;;20.97;48.96;101409.22;4977050;28;20047;-70
2022/05/05 07:55:00;;;;;;;6.43;4.93;;;;;;;20.98;48.95;101408.25;4977636;28;20073;-70
2022/05/05 07:57:27;;;;;;;8.90;6.00;;;;;;;20.98;48.72;101408.25;4976727;28;20042;-71
2022/05/05 07:59:54;;;;;;;7.90;5.95;;;;;;;20.99;48.75;101409.09;4977073;28;20050;-71
2022/05/05 08:02:22;;;;;;;10.10;5.40;;;;;;;20.97;49.28;101406.53;4976166;28;20054;-75
2022/05/05 08:04:49;;;;;;;8.23;5.18;;;;;;;20.99;49.38;101409.97;4977213;28;20418;-71
2022/05/05 08:07:17;;;;;;;7.32;4.90;;;;;;;21.01;49.46;101411.66;4977293;28;20058;-73
2022/05/05 08:09:45;;;;;;;7.28;6.35;;;;;;;21.01;48.81;101415.19;4976599;28;20050;-72
2022/05/05 08:12:27;;;;;;;10.10;5.97;;;;;;;21.01;48.23;101415.19;4976753;28;20070;-72
2022/05/05 08:14:55;;;;;;;10.43;6.53;;;;;;;21.01;48.22;101425.13;4975913;28;20047;-72
2022/05/05 08:17:23;;;;;;;6.85;5.00;;;;;;;20.99;48.31;101418.03;4977293;28;20043;-72
2022/05/05 08:19:51;;;;;;;10.05;6.32;;;;;;;21.00;48.24;101424.28;4976702;28;20047;-72
2022/05/05 08:22:19;;;;;;;8.65;6.50;;;;;;;21.00;48.31;101429.66;4976647;28;20051;-71
2022/05/05 08:30:18;;;;;;;7.72;6.63;;;;;;;20.98;48.57;101428.91;4976468;28;20058;-71
2022/05/05 08:32:46;;;;;;;7.32;6.07;;;;;;;20.98;48.48;101435.19;4976523;28;20050;-71
2022/05/05 08:35:13;;;;;;;9.10;6.25;;;;;;;20.99;48.52;101430.66;4976642;28;20049;-71
2022/05/05 08:37:40;;;;;;;8.55;6.88;;;;;;;20.99;48.55;101436.03;4976433;28;20039;-71
2022/05/05 08:40:11;;;;;;;8.30;6.55;;;;;;;20.98;48.52;101435.19;4975109;28;20415;-72
2022/05/05 08:42:39;;;;;;;6.68;6.03;;;;;;;20.99;48.75;101441.41;4977260;28;20055;-72
2022/05/05 08:45:09;;;;;;;9.70;7.30;;;;;;;20.99;48.75;101444.09;4976163;28;20054;-72
2022/05/05 08:47:37;;;;;;;8.88;7.20;;;;;;;20.98;49.06;101437.88;4977125;28;20046;-71
2022/05/05 08:50:09;;;;;;;9.40;7.70;;;;;;;20.98;49.39;101435.19;4974336;28;20070;-71
2022/05/05 08:52:45;;;;;;;11.77;7.95;;;;;;;20.98;49.79;101432.47;4976459;28;20047;-71
2022/05/05 08:55:17;;;;;;;8.40;7.50;;;;;;;21.00;49.83;101437.72;4975112;28;20411;-71
2022/05/05 08:57:45;;;;;;;9.07;7.22;;;;;;;20.99;50.06;101431.50;4976099;28;20050;-71
2022/05/05 09:00:17;;;;;;;9.38;7.75;;;;;;;21.01;50.33;101433.19;4976189;28;20047;-71
2022/05/05 09:02:45;;;;;;;11.05;9.63;;;;;;;21.00;50.45;101437.72;4975957;28;20051;-71
2022/05/05 09:05:12;;;;;;;9.23;7.88;;;;;;;21.00;50.72;101435.03;4975880;28;20046;-71
2022/05/05 09:07:50;;;;;;;12.57;9.35;;;;;;;21.00;50.60;101437.72;4975713;28;20034;-72
2022/05/05 09:10:21;;;;;;;9.43;7.85;;;;;;;21.00;50.66;101432.34;4975983;28;20054;-72
2022/05/05 09:12:59;;;;;;;10.27;7.85;;;;;;;21.02;50.70;101434.91;4975364;28;20054;-72
2022/05/05 09:15:33;;;;;;;13.98;7.60;;;;;;;21.03;51.02;101432.09;4976075;28;20054;-71
2022/05/05 09:18:18;;;;;;;10.20;8.48;;;;;;;21.03;51.17;101434.78;4975854;28;20051;-71
2022/05/05 09:20:48;;;;;;;10.82;9.20;;;;;;;21.02;51.16;101429.50;4976294;28;20051;-71
2022/05/05 09:23:29;;;;;;;11.50;10.20;;;;;;;21.03;51.42;101434.78;4975671;28;20054;-71
2022/05/05 09:25:57;;;;;;;11.70;10.45;;;;;;;21.03;51.35;101432.09;4975925;28;20481;-72
2022/05/05 09:28:31;;;;;;;11.32;10.23;;;;;;;21.04;51.41;101428.41;4975830;28;20069;-71
2022/05/05 09:31:04;;;;;;;13.18;11.73;;;;;;;21.03;51.58;101428.56;4975342;28;20058;-71
2022/05/05 09:33:33;;;;;;;15.18;13.38;;;;;;;21.03;51.62;101425.88;4974412;28;20050;-71
2022/05/05 09:36:02;;;;;;;13.07;11.77;;;;;;;21.02;51.72;101427.66;4975361;28;20051;-71
2022/05/05 09:38:58;;;;;;;12.43;10.55;;;;;;;21.01;51.63;101431.34;4975471;28;20050;-73
2022/05/05 09:41:28;;;;;;;14.60;12.10;;;;;;;21.01;51.74;101436.72;4973907;28;20502;-72
2022/05/05 09:43:57;;;;;;;14.05;12.18;;;;;;;21.03;51.72;101428.56;4975625;28;20049;-71
2022/05/05 09:46:28;;;;;;;14.15;12.32;;;;;;;21.02;51.94;101426.81;4973733;28;20103;-71
2022/05/05 09:49:12;;;;;;;14.18;12.70;;;;;;;21.03;52.23;101436.63;4975213;28;20043;-71
2022/05/05 09:51:42;;;;;;;17.05;13.10;;;;;;;21.02;52.33;101435.75;4975190;28;20501;-71
2022/05/05 09:59:51;;;;;;;14.63;13.13;;;;;;;21.03;52.54;101432.09;4975282;28;20038;-71
2022/05/05 10:05:22;;;;;;;17.98;14.50;;;;;;;21.05;52.63;101446.25;4974648;28;20050;-71
2022/05/05 10:07:52;;;;;;;16.08;14.05;;;;;;;21.05;52.76;101438.19;4973303;28;20055;-71
2022/05/05 10:10:21;;;;;;;16.17;14.57;;;;;;;21.05;52.73;101435.50;4973505;28;20051;-71
2022/05/05 10:12:49;;;;;;;19.88;15.70;;;;;;;21.04;52.82;101443.72;4974888;28;20051;-71
2022/05/05 10:15:17;;;;;;;16.05;14.35;;;;;;;21.03;52.79;101437.47;4973191;28;20053;-71
2022/05/05 10:17:45;;;;;;;17.60;15.77;;;;;;;21.03;52.74;101434.78;4974386;28;20047;-71
2022/05/05 10:20:14;;;;;;;16.95;15.15;;;;;;;21.03;52.63;101434.78;4972906;28;20051;-71
2022/05/05 10:23:09;;;;;;;17.00;15.30;;;;;;;21.03;52.71;101433.94;4974232;28;20395;-71
2022/05/05 10:25:37;;;;;;;16.33;13.90;;;;;;;21.04;52.70;101436.50;4973345;28;20058;-71
2022/05/05 10:28:44;;;;;;;15.38;13.82;;;;;;;21.03;52.71;101433.94;4974806;28;20039;-71
2022/05/05 10:31:12;;;;;;;16.50;14.63;;;;;;;21.03;52.74;101431.25;4974910;28;20095;-72
2022/05/05 10:34:16;;;;;;;16.45;14.85;;;;;;;21.01;52.84;101428.66;4973619;28;20057;-72
2022/05/05 10:37:04;;;;;;;;;;;;;;;21.02;52.83;101426.81;4975513;28;20538;-72
2022/05/05 10:39:58;;;;;;;16.65;14.38;;;;;;;21.01;52.89;101423.28;4985111;28;19926;-72
2022/05/05 10:42:41;;;;;;;16.30;13.75;;;;;;;21.02;52.94;101429.50;4990330;28;20061;-71
2022/05/05 10:45:30;;;;;;;16.90;15.20;;;;;;;21.04;53.01;101435.63;4992229;28;20514;-72
2022/05/05 10:48:06;;;;;;;16.60;14.90;;;;;;;21.03;53.07;101420.47;4993217;28;20529;-71
2022/05/05 10:50:43;;;;;;;16.92;15.05;;;;;;;21.04;53.08;101430.25;4993111;28;20059;-71
2022/05/05 10:53:40;;;;;;;17.50;15.15;;;;;;;21.04;53.47;101423.03;4992572;28;20161;-72
2022/05/05 10:56:30;;;;;;;18.08;14.00;;;;;;;21.04;53.26;101425.72;4990746;28;20050;-71
2022/05/05 10:59:08;;;;;;;17.23;15.15;;;;;;;21.05;53.19;101429.25;4990572;28;20073;-71
2022/05/05 11:01:41;;;;;;;15.15;13.55;;;;;;;21.05;53.08;101426.56;4992042;28;20057;-71
2022/05/05 11:04:11;;;;;;;17.17;15.48;;;;;;;21.04;53.11;101420.34;4991558;28;20542;-71
2022/05/05 11:06:42;;;;;;;15.95;14.38;;;;;;;21.05;53.13;101429.25;4991358;28;20552;-71
2022/05/05 11:09:27;;;;;;;16.60;14.90;;;;;;;21.05;53.17;101429.25;4991681;28;20054;-72
2022/05/05 11:12:16;;;;;;;18.50;14.80;;;;;;;21.05;53.27;101429.25;4993236;28;20058;-72
2022/05/05 11:23:30;;;;;;;17.00;15.13;;;;;;;21.02;53.43;101430.38;4977462;28;20063;-72
2022/05/05 11:26:00;;;;;;;15.10;13.60;;;;;;;21.00;53.42;101416.19;4976256;28;20049;-72
2022/05/05 11:28:29;;;;;;;14.52;13.02;;;;;;;21.01;53.36;101415.19;4976471;28;20058;-72
2022/05/05 11:30:56;;;;;;;15.73;14.13;;;;;;;21.01;53.18;101415.19;4977381;28;20046;-71
2022/05/05 11:33:24;;;;;;;14.88;13.48;;;;;;;21.03;53.38;101415.94;4977869;28;20058;-72
2022/05/05 11:35:56;;;;;;;14.43;13.02;;;;;;;21.03;53.46;101421.31;4977493;28;20058;-74
2022/05/05 11:38:28;;;;;;;18.70;12.43;;;;;;;21.05;53.72;101415.81;4976429;28;20051;-71
2022/05/05 11:40:59;;;;;;;16.20;14.40;;;;;;;21.05;55.60;101419.34;4977987;28;20061;-72
2022/05/05 11:46:16;;;;;;;16.02;14.32;;;;;;;21.03;56.43;101421.31;4977729;28;20042;-72
2022/05/05 11:48:50;;;;;;;14.27;12.65;;;;;;;21.02;57.96;101413.38;4975780;28;20054;-71
2022/05/05 11:51:25;;;;;;;16.80;14.98;;;;;;;21.00;55.72;101413.50;4977506;28;20047;-71
2022/05/05 11:54:14;;;;;;;18.65;16.30;;;;;;;20.94;55.58;101414.88;4977305;28;20383;-71
2022/05/05 11:56:45;;;;;;;20.60;18.48;;;;;;;20.90;55.02;101410.75;4977354;28;20046;-71
2022/05/05 12:02:17;;;;;;;20.33;18.02;;;;;;;20.82;55.64;101398.88;4977129;28;20054;-72
2022/05/05 12:04:49;;;;;;;21.00;18.80;;;;;;;20.78;55.57;101400.13;4975929;28;20051;-73
2022/05/05 12:07:22;;;;;;;20.05;18.00;;;;;;;20.77;56.82;101401.09;4977195;28;20057;-72
2022/05/05 12:09:52;;;;;;;20.35;18.25;;;;;;;20.74;55.63;101395.00;4977368;28;20051;-72
2022/05/05 12:12:22;;;;;;;21.95;18.55;;;;;;;20.73;55.49;101393.28;4977090;28;20055;-72
2022/05/05 12:14:56;;;;;;;21.30;18.77;;;;;;;20.71;57.26;101395.25;4977249;28;20054;-72
2022/05/05 12:17:31;;;;;;;18.92;16.92;;;;;;;20.69;58.45;101389.13;4975519;28;20062;-74
2022/05/05 12:20:00;;;;;;;20.90;17.90;;;;;;;20.68;57.85;101383.88;4977000;28;20050;-71
2022/05/05 12:22:29;;;;;;;19.10;16.95;;;;;;;20.67;57.08;101379.50;4976623;28;20050;-71